createdAt,value
2023-02-19T00:01:05.163Z,7
2023-02-19T00:16:05.501Z,12
2023-02-19T00:31:04.839Z,10
2023-02-19T00:46:05.518Z,11
2023-02-19T01:01:05.632Z,5
2023-02-19T01:16:05.828Z,10
2023-02-19T01:31:05.530Z,13
2023-02-19T01:46:04.944Z,19
2023-02-19T02:01:04.935Z,15
2023-02-19T02:16:05.300Z,18
2023-02-19T02:31:05.425Z,16
2023-02-19T02:46:05.321Z,20
2023-02-19T03:01:05.794Z,16
2023-02-19T03:16:04.969Z,14
2023-02-19T03:31:05.426Z,8
2023-02-19T03:46:05.155Z,5
2023-02-19T04:01:05.276Z,10
2023-02-19T04:16:05.429Z,12
2023-02-19T04:31:05.651Z,11
2023-02-19T04:46:04.978Z,19
2023-02-19T05:01:05.204Z,23
2023-02-19T05:16:05.429Z,32
2023-02-19T05:31:04.777Z,38
2023-02-19T05:46:04.982Z,29
2023-02-19T06:01:05.058Z,37
2023-02-19T06:16:05.282Z,12
2023-02-19T06:31:04.992Z,8
2023-02-19T06:46:05.108Z,10
2023-02-19T07:01:05.417Z,16
2023-02-19T07:16:04.761Z,23
2023-02-19T07:31:05.622Z,23
2023-02-19T07:46:05.102Z,26
2023-02-19T08:01:04.862Z,29
2023-02-19T08:16:16.274Z,27
2023-02-19T08:31:05.562Z,21
2023-02-19T08:46:05.154Z,26
2023-02-19T09:01:04.979Z,20
2023-02-19T09:16:05.189Z,20
2023-02-19T09:31:05.508Z,14
2023-02-19T09:46:05.350Z,8
2023-02-19T10:01:05.227Z,13
2023-02-19T10:16:05.483Z,3
2023-02-19T10:31:04.976Z,6
2023-02-19T10:46:05.261Z,6
2023-02-19T11:01:06.288Z,7
2023-02-19T11:16:04.829Z,7
2023-02-19T11:31:05.127Z,5
2023-02-19T11:46:05.453Z,5
2023-02-19T12:01:05.778Z,10
2023-02-19T12:16:05.244Z,10
2023-02-19T12:31:05.535Z,6
2023-02-19T12:46:05.722Z,10
2023-02-19T13:01:04.981Z,7
2023-02-19T13:16:05.214Z,7
2023-02-19T13:31:05.404Z,6
2023-02-19T13:46:04.677Z,7
2023-02-19T14:01:05.181Z,8
2023-02-19T14:16:05.403Z,6
2023-02-19T14:31:05.501Z,9
2023-02-19T14:46:04.753Z,8
2023-02-19T15:01:05.026Z,6
2023-02-19T15:16:05.317Z,6
2023-02-19T15:31:05.417Z,6
2023-02-19T15:46:04.954Z,7
2023-02-19T16:01:05.342Z,6
2023-02-19T16:16:05.182Z,8
2023-02-19T16:31:04.884Z,12
2023-02-19T16:46:05.215Z,24
2023-02-19T17:01:05.391Z,14
2023-02-19T17:16:05.917Z,12
2023-02-19T17:31:04.706Z,22
2023-02-19T17:46:04.965Z,12
2023-02-19T18:01:04.874Z,16
2023-02-19T18:16:05.141Z,18
2023-02-19T18:31:05.514Z,10
2023-02-19T18:46:04.854Z,10
2023-02-19T19:01:04.868Z,13
2023-02-19T19:16:04.838Z,11
2023-02-19T19:31:05.038Z,18
2023-02-19T19:46:05.262Z,15
2023-02-19T20:01:05.430Z,17
2023-02-19T20:16:05.517Z,16
2023-02-19T20:31:05.327Z,16
2023-02-19T20:46:05.019Z,13
2023-02-19T21:01:05.222Z,14
2023-02-19T21:16:04.974Z,15
2023-02-19T21:31:04.902Z,14
2023-02-19T21:46:05.254Z,15
2023-02-19T22:01:04.611Z,13
2023-02-19T22:16:05.523Z,12
2023-02-19T22:31:05.313Z,12
2023-02-19T22:46:04.951Z,13
2023-02-19T23:01:05.440Z,14
2023-02-19T23:16:04.668Z,11
2023-02-19T23:31:04.677Z,8
2023-02-19T23:46:05.586Z,7
